sensor_id;sensor_type;location;lat;lon;timestamp;pressure;altitude;pressure_sealevel;temperature;humidity
80749;BME280;70145;53.746;9.970;2023-07-20T00:01:01;100947.38;;;13.68;55.37
80749;BME280;70145;53.746;9.970;2023-07-20T00:03:27;100932.97;;;13.68;55.55
80749;BME280;70145;53.746;9.970;2023-07-20T00:05:52;100935.69;;;13.68;55.38
80749;BME280;70145;53.746;9.970;2023-07-20T00:08:17;100938.38;;;13.68;55.41
80749;BME280;70145;53.746;9.970;2023-07-20T00:10:43;100931.97;;;13.69;55.88
80749;BME280;70145;53.746;9.970;2023-07-20T00:13:12;100930.28;;;13.68;55.60
80749;BME280;70145;53.746;9.970;2023-07-20T00:15:37;100927.56;;;13.68;55.66
80749;BME280;70145;53.746;9.970;2023-07-20T00:18:06;100925.72;;;13.68;55.62
80749;BME280;70145;53.746;9.970;2023-07-20T00:20:31;100926.56;;;13.69;55.66
80749;BME280;70145;53.746;9.970;2023-07-20T00:22:58;100917.59;;;13.68;55.59
80749;BME280;70145;53.746;9.970;2023-07-20T00:25:24;100915.03;;;13.67;55.79
80749;BME280;70145;53.746;9.970;2023-07-20T00:27:49;100915.03;;;13.67;55.92
80749;BME280;70145;53.746;9.970;2023-07-20T00:30:14;100920.44;;;13.67;56.04
80749;BME280;70145;53.746;9.970;2023-07-20T00:32:41;100920.44;;;13.67;56.18
80749;BME280;70145;53.746;9.970;2023-07-20T00:35:07;100917.75;;;13.67;56.31
80749;BME280;70145;53.746;9.970;2023-07-20T00:37:32;100920.44;;;13.67;56.32
80749;BME280;70145;53.746;9.970;2023-07-20T00:39:57;100907.06;;;13.65;56.17
80749;BME280;70145;53.746;9.970;2023-07-20T00:42:22;100920.44;;;13.67;56.48
80749;BME280;70145;53.746;9.970;2023-07-20T00:44:48;100927.69;;;13.66;56.32
80749;BME280;70145;53.746;9.970;2023-07-20T00:47:13;100919.72;;;13.65;56.27
80749;BME280;70145;53.746;9.970;2023-07-20T00:49:39;100919.72;;;13.65;56.27
80749;BME280;70145;53.746;9.970;2023-07-20T00:52:06;100919.72;;;13.65;56.49
80749;BME280;70145;53.746;9.970;2023-07-20T00:54:32;100919.72;;;13.65;56.24
80749;BME280;70145;53.746;9.970;2023-07-20T00:56:58;100918.88;;;13.64;56.42
80749;BME280;70145;53.746;9.970;2023-07-20T00:59:23;100916.16;;;13.64;56.41
80749;BME280;70145;53.746;9.970;2023-07-20T01:01:49;100921.72;;;13.63;56.59
80749;BME280;70145;53.746;9.970;2023-07-20T01:04:14;100921.72;;;13.63;56.52
80749;BME280;70145;53.746;9.970;2023-07-20T01:06:55;100914.59;;;13.62;56.83
80749;BME280;70145;53.746;9.970;2023-07-20T01:09:34;100925.72;;;13.59;56.44
80749;BME280;70145;53.746;9.970;2023-07-20T01:12:08;100923.00;;;13.59;56.57
80749;BME280;70145;53.746;9.970;2023-07-20T01:14:37;100926.72;;;13.58;56.64
80749;BME280;70145;53.746;9.970;2023-07-20T01:17:03;100928.56;;;13.57;56.43
80749;BME280;70145;53.746;9.970;2023-07-20T01:19:29;100922.31;;;13.57;56.98
80749;BME280;70145;53.746;9.970;2023-07-20T01:22:02;100934.84;;;13.58;56.81
80749;BME280;70145;53.746;9.970;2023-07-20T01:24:42;100929.56;;;13.56;57.33
80749;BME280;70145;53.746;9.970;2023-07-20T01:27:24;100926.88;;;13.56;57.01
80749;BME280;70145;53.746;9.970;2023-07-20T01:32:23;100923.28;;;13.56;57.26
80749;BME280;70145;53.746;9.970;2023-07-20T01:34:52;100916.91;;;13.57;57.06
80749;BME280;70145;53.746;9.970;2023-07-20T01:37:18;100921.47;;;13.56;57.17
80749;BME280;70145;53.746;9.970;2023-07-20T01:39:45;100924.03;;;13.58;57.33
80749;BME280;70145;53.746;9.970;2023-07-20T01:42:11;100919.44;;;13.58;57.32
80749;BME280;70145;53.746;9.970;2023-07-20T01:44:37;100930.13;;;13.60;57.49
80749;BME280;70145;53.746;9.970;2023-07-20T01:47:03;100918.47;;;13.59;57.48
80749;BME280;70145;53.746;9.970;2023-07-20T01:49:29;100917.47;;;13.60;57.87
80749;BME280;70145;53.746;9.970;2023-07-20T01:51:54;100912.03;;;13.60;57.12
80749;BME280;70145;53.746;9.970;2023-07-20T01:54:19;100912.91;;;13.61;57.61
80749;BME280;70145;53.746;9.970;2023-07-20T01:56:45;100907.50;;;13.61;57.68
80749;BME280;70145;53.746;9.970;2023-07-20T01:59:10;100906.63;;;13.60;57.79
80749;BME280;70145;53.746;9.970;2023-07-20T02:01:35;100912.91;;;13.61;57.55
80749;BME280;70145;53.746;9.970;2023-07-20T02:04:00;100908.47;;;13.60;57.80
80749;BME280;70145;53.746;9.970;2023-07-20T02:06:26;100906.63;;;13.60;57.68
80749;BME280;70145;53.746;9.970;2023-07-20T02:08:51;100906.63;;;13.60;57.65
80749;BME280;70145;53.746;9.970;2023-07-20T02:11:16;100909.34;;;13.60;57.85
80749;BME280;70145;53.746;9.970;2023-07-20T02:13:41;100906.63;;;13.60;57.61
80749;BME280;70145;53.746;9.970;2023-07-20T02:16:07;100912.91;;;13.61;57.58
80749;BME280;70145;53.746;9.970;2023-07-20T02:18:32;100917.31;;;13.62;57.47
80749;BME280;70145;53.746;9.970;2023-07-20T02:20:58;100920.00;;;13.62;57.60
80749;BME280;70145;53.746;9.970;2023-07-20T02:23:24;100924.56;;;13.61;57.85
80749;BME280;70145;53.746;9.970;2023-07-20T02:25:49;100920.00;;;13.62;57.91
80749;BME280;70145;53.746;9.970;2023-07-20T02:28:14;100918.31;;;13.61;57.85
80749;BME280;70145;53.746;9.970;2023-07-20T02:30:40;100922.88;;;13.60;57.74
80749;BME280;70145;53.746;9.970;2023-07-20T02:33:05;100917.59;;;13.59;57.84
80749;BME280;70145;53.746;9.970;2023-07-20T02:35:32;100921.16;;;13.59;57.71
80749;BME280;70145;53.746;9.970;2023-07-20T02:37:57;100922.16;;;13.58;57.79
80749;BME280;70145;53.746;9.970;2023-07-20T02:40:22;100919.44;;;13.58;57.86
80749;BME280;70145;53.746;9.970;2023-07-20T02:42:48;100923.16;;;13.57;57.81
80749;BME280;70145;53.746;9.970;2023-07-20T02:45:13;100921.31;;;13.58;58.09
80749;BME280;70145;53.746;9.970;2023-07-20T02:47:39;100933.16;;;13.57;58.53
80749;BME280;70145;53.746;9.970;2023-07-20T02:50:07;100929.72;;;13.55;58.43
80749;BME280;70145;53.746;9.970;2023-07-20T02:52:32;100928.03;;;13.54;57.90
80749;BME280;70145;53.746;9.970;2023-07-20T02:54:58;100930.72;;;13.54;58.12
80749;BME280;70145;53.746;9.970;2023-07-20T02:57:23;100920.88;;;13.53;58.07
80749;BME280;70145;53.746;9.970;2023-07-20T02:59:48;100916.47;;;13.52;58.11
80749;BME280;70145;53.746;9.970;2023-07-20T03:02:13;100910.91;;;13.53;57.98
80749;BME280;70145;53.746;9.970;2023-07-20T03:04:39;100925.47;;;13.52;58.17
80749;BME280;70145;53.746;9.970;2023-07-20T03:07:05;100929.00;;;13.53;58.01
80749;BME280;70145;53.746;9.970;2023-07-20T03:09:30;100930.00;;;13.52;58.05
80749;BME280;70145;53.746;9.970;2023-07-20T03:11:55;100934.41;;;13.53;58.16
80749;BME280;70145;53.746;9.970;2023-07-20T03:14:20;100932.00;;;13.50;58.17
80749;BME280;70145;53.746;9.970;2023-07-20T03:16:46;100936.44;;;13.51;58.08
80749;BME280;70145;53.746;9.970;2023-07-20T03:19:11;100937.41;;;13.50;58.28
80749;BME280;70145;53.746;9.970;2023-07-20T03:21:36;100934.84;;;13.48;58.37
80749;BME280;70145;53.746;9.970;2023-07-20T03:24:06;100934.00;;;13.48;58.53
80749;BME280;70145;53.746;9.970;2023-07-20T03:26:32;100928.59;;;13.48;58.08
80749;BME280;70145;53.746;9.970;2023-07-20T03:28:57;100938.56;;;13.47;58.74
80749;BME280;70145;53.746;9.970;2023-07-20T03:31:23;100934.00;;;13.48;58.36
80749;BME280;70145;53.746;9.970;2023-07-20T03:33:48;100934.97;;;13.47;58.38
80749;BME280;70145;53.746;9.970;2023-07-20T03:36:13;100933.28;;;13.46;58.42
80749;BME280;70145;53.746;9.970;2023-07-20T03:38:39;100939.69;;;13.45;58.45
80749;BME280;70145;53.746;9.970;2023-07-20T03:41:04;100938.69;;;13.46;58.54
80749;BME280;70145;53.746;9.970;2023-07-20T03:43:29;100937.69;;;13.47;58.41
80749;BME280;70145;53.746;9.970;2023-07-20T03:45:55;100943.25;;;13.45;58.60
80749;BME280;70145;53.746;9.970;2023-07-20T03:48:23;100932.28;;;13.47;58.58
80749;BME280;70145;53.746;9.970;2023-07-20T03:50:49;100940.38;;;13.47;58.76
80749;BME280;70145;53.746;9.970;2023-07-20T03:53:16;100934.00;;;13.48;58.71
80749;BME280;70145;53.746;9.970;2023-07-20T03:55:45;100937.69;;;13.47;58.49
80749;BME280;70145;53.746;9.970;2023-07-20T03:58:12;100937.69;;;13.47;58.81
80749;BME280;70145;53.746;9.970;2023-07-20T04:00:38;100943.25;;;13.45;58.71
80749;BME280;70145;53.746;9.970;2023-07-20T04:03:03;100939.69;;;13.45;58.81
80749;BME280;70145;53.746;9.970;2023-07-20T04:05:28;100950.53;;;13.45;58.61
80749;BME280;70145;53.746;9.970;2023-07-20T04:07:53;100950.53;;;13.45;58.78
80749;BME280;70145;53.746;9.970;2023-07-20T04:10:19;100949.66;;;13.44;58.76
80749;BME280;70145;53.746;9.970;2023-07-20T04:12:45;100951.34;;;13.45;58.83
80749;BME280;70145;53.746;9.970;2023-07-20T04:15:12;100950.53;;;13.45;58.56
80749;BME280;70145;53.746;9.970;2023-07-20T04:17:38;100953.38;;;13.43;58.74
80749;BME280;70145;53.746;9.970;2023-07-20T04:20:04;100960.63;;;13.43;58.70
80749;BME280;70145;53.746;9.970;2023-07-20T04:22:30;100959.78;;;13.42;58.66
80749;BME280;70145;53.746;9.970;2023-07-20T04:24:55;100956.34;;;13.40;58.96
80749;BME280;70145;53.746;9.970;2023-07-20T04:27:21;100958.19;;;13.40;58.83
80749;BME280;70145;53.746;9.970;2023-07-20T04:29:46;100957.38;;;13.39;59.02
80749;BME280;70145;53.746;9.970;2023-07-20T04:32:12;100961.19;;;13.37;59.04
80749;BME280;70145;53.746;9.970;2023-07-20T04:34:37;100963.88;;;13.37;59.03
80749;BME280;70145;53.746;9.970;2023-07-20T04:37:04;100963.06;;;13.36;59.17
80749;BME280;70145;53.746;9.970;2023-07-20T04:39:29;100962.19;;;13.36;59.14
80749;BME280;70145;53.746;9.970;2023-07-20T04:41:54;100964.75;;;13.37;58.97
80749;BME280;70145;53.746;9.970;2023-07-20T04:44:20;100962.91;;;13.38;58.91
80749;BME280;70145;53.746;9.970;2023-07-20T04:46:45;100962.78;;;13.39;59.13
80749;BME280;70145;53.746;9.970;2023-07-20T04:49:11;100959.06;;;13.40;59.15
80749;BME280;70145;53.746;9.970;2023-07-20T04:51:38;100956.22;;;13.42;59.06
80749;BME280;70145;53.746;9.970;2023-07-20T04:54:03;100955.22;;;13.43;59.15
80749;BME280;70145;53.746;9.970;2023-07-20T04:56:28;100957.78;;;13.44;59.08
80749;BME280;70145;53.746;9.970;2023-07-20T04:58:54;100953.09;;;13.46;59.07
80749;BME280;70145;53.746;9.970;2023-07-20T05:01:19;100952.06;;;13.47;58.92
80749;BME280;70145;53.746;9.970;2023-07-20T05:03:45;100957.34;;;13.49;59.46
80749;BME280;70145;53.746;9.970;2023-07-20T05:06:10;100962.63;;;13.50;59.45
80749;BME280;70145;53.746;9.970;2023-07-20T05:08:35;100952.53;;;13.52;59.21
80749;BME280;70145;53.746;9.970;2023-07-20T05:11:00;100957.78;;;13.54;59.36
80749;BME280;70145;53.746;9.970;2023-07-20T05:13:26;100963.06;;;13.55;59.49
80749;BME280;70145;53.746;9.970;2023-07-20T05:15:52;100961.19;;;13.56;59.30
80749;BME280;70145;53.746;9.970;2023-07-20T05:18:18;100958.34;;;13.57;59.20
80749;BME280;70145;53.746;9.970;2023-07-20T05:20:48;100963.59;;;13.59;59.49
80749;BME280;70145;53.746;9.970;2023-07-20T05:23:14;100958.06;;;13.60;59.43
80749;BME280;70145;53.746;9.970;2023-07-20T05:25:39;100957.91;;;13.62;59.44
80749;BME280;70145;53.746;9.970;2023-07-20T05:28:05;100958.78;;;13.62;59.46
80749;BME280;70145;53.746;9.970;2023-07-20T05:30:31;100966.75;;;13.64;59.33
80749;BME280;70145;53.746;9.970;2023-07-20T05:32:56;100966.47;;;13.67;59.41
80749;BME280;70145;53.746;9.970;2023-07-20T05:35:22;100959.03;;;13.69;59.32
80749;BME280;70145;53.746;9.970;2023-07-20T05:37:48;100961.59;;;13.70;59.51
80749;BME280;70145;53.746;9.970;2023-07-20T05:40:14;100948.50;;;13.75;59.37
80749;BME280;70145;53.746;9.970;2023-07-20T05:42:43;100963.00;;;13.74;59.79
80749;BME280;70145;53.746;9.970;2023-07-20T05:45:08;100958.03;;;13.79;59.73
80749;BME280;70145;53.746;9.970;2023-07-20T05:47:34;100955.91;;;13.83;59.68
80749;BME280;70145;53.746;9.970;2023-07-20T05:49:59;100959.28;;;13.85;59.74
80749;BME280;70145;53.746;9.970;2023-07-20T05:52:25;100959.88;;;13.88;59.61
80749;BME280;70145;53.746;9.970;2023-07-20T05:54:50;100961.44;;;13.91;59.94
80749;BME280;70145;53.746;9.970;2023-07-20T05:57:16;100957.72;;;13.92;59.90
80749;BME280;70145;53.746;9.970;2023-07-20T05:59:41;100956.44;;;13.96;59.68
80749;BME280;70145;53.746;9.970;2023-07-20T06:02:09;100959.84;;;13.98;59.54
80749;BME280;70145;53.746;9.970;2023-07-20T06:04:35;100962.97;;;14.03;59.57
80749;BME280;70145;53.746;9.970;2023-07-20T06:07:00;100958.97;;;14.07;59.70
80749;BME280;70145;53.746;9.970;2023-07-20T06:09:27;100955.25;;;14.08;59.49
80749;BME280;70145;53.746;9.970;2023-07-20T06:11:54;100961.66;;;14.07;59.49
80749;BME280;70145;53.746;9.970;2023-07-20T06:14:19;100964.66;;;14.13;59.34
80749;BME280;70145;53.746;9.970;2023-07-20T06:16:45;100964.22;;;14.18;59.37
80749;BME280;70145;53.746;9.970;2023-07-20T06:19:10;100962.38;;;14.18;59.42
80749;BME280;70145;53.746;9.970;2023-07-20T06:21:39;100966.63;;;14.21;59.37
80749;BME280;70145;53.746;9.970;2023-07-20T06:24:04;100966.78;;;14.29;59.21
80749;BME280;70145;53.746;9.970;2023-07-20T06:26:30;100967.16;;;14.34;59.07
80749;BME280;70145;53.746;9.970;2023-07-20T06:28:56;100962.00;;;14.41;58.77
80749;BME280;70145;53.746;9.970;2023-07-20T06:31:21;100959.84;;;14.44;58.68
80749;BME280;70145;53.746;9.970;2023-07-20T06:33:47;100965.25;;;14.44;58.82
80749;BME280;70145;53.746;9.970;2023-07-20T06:36:12;100968.25;;;14.51;58.36
80749;BME280;70145;53.746;9.970;2023-07-20T06:38:38;100972.91;;;14.58;58.57
80749;BME280;70145;53.746;9.970;2023-07-20T06:41:03;100977.03;;;14.62;58.50
80749;BME280;70145;53.746;9.970;2023-07-20T06:43:29;100973.00;;;14.66;58.12
80749;BME280;70145;53.746;9.970;2023-07-20T06:45:54;100972.41;;;14.72;58.04
80749;BME280;70145;53.746;9.970;2023-07-20T06:48:20;100977.22;;;14.78;57.97
80749;BME280;70145;53.746;9.970;2023-07-20T06:50:46;100968.50;;;14.84;57.80
80749;BME280;70145;53.746;9.970;2023-07-20T06:53:11;100983.47;;;14.88;57.72
80749;BME280;70145;53.746;9.970;2023-07-20T06:55:36;100978.28;;;14.95;57.62
80749;BME280;70145;53.746;9.970;2023-07-20T06:58:02;100982.44;;;14.99;57.38
80749;BME280;70145;53.746;9.970;2023-07-20T07:00:28;100972.41;;;14.99;57.33
80749;BME280;70145;53.746;9.970;2023-07-20T07:02:53;100971.13;;;15.03;57.31
80749;BME280;70145;53.746;9.970;2023-07-20T07:05:18;100972.41;;;14.99;57.04
80749;BME280;70145;53.746;9.970;2023-07-20T07:07:44;100970.50;;;15.09;56.87
80749;BME280;70145;53.746;9.970;2023-07-20T07:10:09;100967.31;;;15.14;56.64
80749;BME280;70145;53.746;9.970;2023-07-20T07:12:35;100975.38;;;15.06;56.08
80749;BME280;70145;53.746;9.970;2023-07-20T07:15:02;100975.63;;;15.12;56.50
80749;BME280;70145;53.746;9.970;2023-07-20T07:17:27;100972.06;;;15.12;56.29
80749;BME280;70145;53.746;9.970;2023-07-20T07:19:53;100974.16;;;15.18;55.74
80749;BME280;70145;53.746;9.970;2023-07-20T07:22:20;100969.56;;;15.18;56.00
80749;BME280;70145;53.746;9.970;2023-07-20T07:24:46;100968.19;;;15.14;55.40
80749;BME280;70145;53.746;9.970;2023-07-20T07:27:12;100985.19;;;15.16;55.50
80749;BME280;70145;53.746;9.970;2023-07-20T07:29:37;100972.59;;;15.15;55.12
80749;BME280;70145;53.746;9.970;2023-07-20T07:32:03;100975.00;;;15.18;55.20
80749;BME280;70145;53.746;9.970;2023-07-20T07:34:28;100970.03;;;15.14;54.66
80749;BME280;70145;53.746;9.970;2023-07-20T07:36:53;100968.09;;;15.24;54.83
80749;BME280;70145;53.746;9.970;2023-07-20T07:39:19;100960.38;;;15.29;54.83
80749;BME280;70145;53.746;9.970;2023-07-20T07:41:44;100968.41;;;15.38;54.75
80749;BME280;70145;53.746;9.970;2023-07-20T07:44:10;100973.38;;;15.43;54.77
80749;BME280;70145;53.746;9.970;2023-07-20T07:46:35;100969.91;;;15.50;54.36
80749;BME280;70145;53.746;9.970;2023-07-20T07:49:00;100973.00;;;15.55;54.05
80749;BME280;70145;53.746;9.970;2023-07-20T07:51:26;100974.84;;;15.55;54.00
80749;BME280;70145;53.746;9.970;2023-07-20T07:53:52;100977.56;;;15.55;53.79
80749;BME280;70145;53.746;9.970;2023-07-20T07:56:17;100972.69;;;15.58;53.74
80749;BME280;70145;53.746;9.970;2023-07-20T07:58:46;100968.81;;;15.61;53.59
80749;BME280;70145;53.746;9.970;2023-07-20T08:01:11;100973.69;;;15.57;53.94
80749;BME280;70145;53.746;9.970;2023-07-20T08:03:37;100977.78;;;15.61;53.87
80749;BME280;70145;53.746;9.970;2023-07-20T08:06:02;100975.47;;;15.66;53.65
80749;BME280;70145;53.746;9.970;2023-07-20T08:08:30;100981.28;;;15.71;54.10
80749;BME280;70145;53.746;9.970;2023-07-20T08:10:55;100983.00;;;15.72;53.73
80749;BME280;70145;53.746;9.970;2023-07-20T08:13:21;100977.66;;;15.80;53.63
80749;BME280;70145;53.746;9.970;2023-07-20T08:15:51;100980.44;;;15.71;53.79
80749;BME280;70145;53.746;9.970;2023-07-20T08:18:19;100984.81;;;15.81;53.81
80749;BME280;70145;53.746;9.970;2023-07-20T08:20:45;100983.63;;;15.84;54.02
80749;BME280;70145;53.746;9.970;2023-07-20T08:23:10;100966.00;;;15.88;53.65
80749;BME280;70145;53.746;9.970;2023-07-20T08:25:36;100972.97;;;15.90;54.23
80749;BME280;70145;53.746;9.970;2023-07-20T08:28:04;100977.56;;;15.90;54.09
80749;BME280;70145;53.746;9.970;2023-07-20T08:30:39;100984.34;;;15.86;54.09
80749;BME280;70145;53.746;9.970;2023-07-20T08:33:05;100972.44;;;15.87;54.46
80749;BME280;70145;53.746;9.970;2023-07-20T08:35:30;100972.34;;;15.96;54.25
80749;BME280;70145;53.746;9.970;2023-07-20T08:37:55;100978.09;;;15.93;53.97
80749;BME280;70145;53.746;9.970;2023-07-20T08:40:21;100974.06;;;15.97;53.89
80749;BME280;70145;53.746;9.970;2023-07-20T08:42:46;100975.44;;;16.01;53.57
80749;BME280;70145;53.746;9.970;2023-07-20T08:45:12;100972.44;;;16.12;53.16
80749;BME280;70145;53.746;9.970;2023-07-20T08:47:40;100981.81;;;16.18;52.42
80749;BME280;70145;53.746;9.970;2023-07-20T08:50:07;100976.28;;;16.27;52.07
80749;BME280;70145;53.746;9.970;2023-07-20T08:52:34;100977.19;;;16.36;50.81
80749;BME280;70145;53.746;9.970;2023-07-20T08:54:59;100979.78;;;16.46;50.99
80749;BME280;70145;53.746;9.970;2023-07-20T08:57:28;100973.34;;;16.47;50.07
80749;BME280;70145;53.746;9.970;2023-07-20T08:59:54;100992.75;;;16.52;49.11
80749;BME280;70145;53.746;9.970;2023-07-20T09:02:21;100999.75;;;16.54;49.99
80749;BME280;70145;53.746;9.970;2023-07-20T09:04:50;101005.09;;;16.46;51.17
80749;BME280;70145;53.746;9.970;2023-07-20T09:07:15;101006.63;;;16.49;51.55
80749;BME280;70145;53.746;9.970;2023-07-20T09:09:41;101001.78;;;16.52;51.51
80749;BME280;70145;53.746;9.970;2023-07-20T09:12:15;101016.25;;;16.61;51.95
80749;BME280;70145;53.746;9.970;2023-07-20T09:14:45;101011.16;;;16.58;51.93
80749;BME280;70145;53.746;9.970;2023-07-20T09:17:14;101010.50;;;16.64;51.82
80749;BME280;70145;53.746;9.970;2023-07-20T09:19:47;101008.84;;;16.71;51.88
80749;BME280;70145;53.746;9.970;2023-07-20T09:22:12;101008.50;;;16.66;51.42
80749;BME280;70145;53.746;9.970;2023-07-20T09:24:38;101008.50;;;16.74;51.15
80749;BME280;70145;53.746;9.970;2023-07-20T09:27:04;101007.47;;;16.75;51.04
80749;BME280;70145;53.746;9.970;2023-07-20T09:29:29;101011.59;;;16.79;50.97
80749;BME280;70145;53.746;9.970;2023-07-20T09:32:18;101001.22;;;16.82;50.25
80749;BME280;70145;53.746;9.970;2023-07-20T09:34:43;101009.28;;;16.92;50.60
80749;BME280;70145;53.746;9.970;2023-07-20T09:37:09;101006.03;;;16.96;50.24
80749;BME280;70145;53.746;9.970;2023-07-20T09:39:43;101003.38;;;17.04;50.26
80749;BME280;70145;53.746;9.970;2023-07-20T09:42:11;101000.81;;;17.11;49.85
80749;BME280;70145;53.746;9.970;2023-07-20T09:44:36;101002.88;;;17.17;50.08
80749;BME280;70145;53.746;9.970;2023-07-20T09:47:03;101008.84;;;17.20;49.38
80749;BME280;70145;53.746;9.970;2023-07-20T09:49:29;100997.19;;;17.28;49.82
80749;BME280;70145;53.746;9.970;2023-07-20T09:51:55;101001.25;;;17.32;49.29
80749;BME280;70145;53.746;9.970;2023-07-20T09:54:22;100993.78;;;17.42;49.21
80749;BME280;70145;53.746;9.970;2023-07-20T09:56:48;100995.31;;;17.44;49.22
80749;BME280;70145;53.746;9.970;2023-07-20T09:59:16;101008.09;;;17.52;49.01
80749;BME280;70145;53.746;9.970;2023-07-20T10:01:42;101041.94;;;17.41;49.87
80749;BME280;70145;53.746;9.970;2023-07-20T10:04:09;101038.25;;;17.17;51.91
80749;BME280;70145;53.746;9.970;2023-07-20T10:06:41;101037.31;;;17.26;51.38
80749;BME280;70145;53.746;9.970;2023-07-20T10:09:07;101032.56;;;17.28;51.41
80749;BME280;70145;53.746;9.970;2023-07-20T10:11:36;101033.22;;;17.30;51.62
80749;BME280;70145;53.746;9.970;2023-07-20T10:14:04;101032.91;;;17.33;51.93
80749;BME280;70145;53.746;9.970;2023-07-20T10:16:39;101036.81;;;17.30;51.83
80749;BME280;70145;53.746;9.970;2023-07-20T10:19:39;101031.53;;;17.29;52.16
80749;BME280;70145;53.746;9.970;2023-07-20T10:22:12;101026.94;;;17.29;51.89
80749;BME280;70145;53.746;9.970;2023-07-20T10:24:38;101022.63;;;17.19;52.72
80749;BME280;70145;53.746;9.970;2023-07-20T10:27:05;101031.50;;;17.21;53.15
80749;BME280;70145;53.746;9.970;2023-07-20T10:29:31;101015.88;;;17.23;53.44
80749;BME280;70145;53.746;9.970;2023-07-20T10:31:57;101015.53;;;17.26;53.38
80749;BME280;70145;53.746;9.970;2023-07-20T10:34:23;101016.56;;;17.25;54.29
80749;BME280;70145;53.746;9.970;2023-07-20T10:36:49;101020.66;;;17.37;53.68
80749;BME280;70145;53.746;9.970;2023-07-20T10:39:46;101018.94;;;17.36;54.43
80749;BME280;70145;53.746;9.970;2023-07-20T10:42:12;101011.47;;;17.38;55.02
80749;BME280;70145;53.746;9.970;2023-07-20T10:44:38;101002.97;;;17.41;54.30
80749;BME280;70145;53.746;9.970;2023-07-20T10:47:08;100998.91;;;17.45;55.21
80749;BME280;70145;53.746;9.970;2023-07-20T10:49:34;101006.72;;;17.48;54.46
80749;BME280;70145;53.746;9.970;2023-07-20T10:52:04;101012.53;;;17.61;54.30
80749;BME280;70145;53.746;9.970;2023-07-20T10:56:56;101005.22;;;17.69;54.15
80749;BME280;70145;53.746;9.970;2023-07-20T11:01:56;101004.19;;;17.70;53.66
80749;BME280;70145;53.746;9.970;2023-07-20T11:07:03;101014.59;;;17.83;53.58
80749;BME280;70145;53.746;9.970;2023-07-20T11:09:34;101010.50;;;17.79;51.96
80749;BME280;70145;53.746;9.970;2023-07-20T11:12:35;101015.97;;;17.63;51.50
80749;BME280;70145;53.746;9.970;2023-07-20T11:15:00;101002.31;;;17.71;50.99
80749;BME280;70145;53.746;9.970;2023-07-20T11:17:30;101036.03;;;17.62;50.21
80749;BME280;70145;53.746;9.970;2023-07-20T11:19:56;101029.56;;;17.47;50.60
80749;BME280;70145;53.746;9.970;2023-07-20T11:22:22;101046.22;;;17.44;50.93
80749;BME280;70145;53.746;9.970;2023-07-20T11:24:47;101040.06;;;17.42;51.61
80749;BME280;70145;53.746;9.970;2023-07-20T11:27:14;101036.69;;;17.48;51.84
80749;BME280;70145;53.746;9.970;2023-07-20T11:29:40;101038.06;;;17.52;52.03
80749;BME280;70145;53.746;9.970;2023-07-20T11:32:05;101047.91;;;17.53;51.96
80749;BME280;70145;53.746;9.970;2023-07-20T11:34:32;101058.16;;;17.59;51.72
80749;BME280;70145;53.746;9.970;2023-07-20T11:36:58;101054.06;;;17.55;51.79
80749;BME280;70145;53.746;9.970;2023-07-20T11:39:23;101054.06;;;17.47;51.69
80749;BME280;70145;53.746;9.970;2023-07-20T11:41:54;101052.66;;;17.35;51.23
80749;BME280;70145;53.746;9.970;2023-07-20T11:44:24;101044.34;;;17.11;51.18
80749;BME280;70145;53.746;9.970;2023-07-20T11:47:03;101049.63;;;17.12;51.32
80749;BME280;70145;53.746;9.970;2023-07-20T11:49:30;101051.47;;;17.04;52.00
80749;BME280;70145;53.746;9.970;2023-07-20T11:51:56;101057.97;;;17.11;52.03
80749;BME280;70145;53.746;9.970;2023-07-20T11:54:22;101048.09;;;17.02;52.28
80749;BME280;70145;53.746;9.970;2023-07-20T11:56:48;101043.84;;;17.07;52.21
80749;BME280;70145;53.746;9.970;2023-07-20T11:59:13;101049.28;;;17.07;52.17
80749;BME280;70145;53.746;9.970;2023-07-20T12:01:39;101045.38;;;17.02;52.01
80749;BME280;70145;53.746;9.970;2023-07-20T12:04:04;101044.34;;;17.11;52.03
80749;BME280;70145;53.746;9.970;2023-07-20T12:06:30;101042.31;;;17.05;52.85
80749;BME280;70145;53.746;9.970;2023-07-20T12:08:57;101045.06;;;17.13;52.93
80749;BME280;70145;53.746;9.970;2023-07-20T12:11:32;101041.47;;;17.04;53.50
80749;BME280;70145;53.746;9.970;2023-07-20T12:13:58;101045.38;;;17.02;53.33
80749;BME280;70145;53.746;9.970;2023-07-20T12:16:27;101043.69;;;17.09;53.55
80749;BME280;70145;53.746;9.970;2023-07-20T12:19:03;101045.22;;;17.11;53.17
80749;BME280;70145;53.746;9.970;2023-07-20T12:21:29;101044.41;;;17.19;53.39
80749;BME280;70145;53.746;9.970;2023-07-20T12:23:58;101048.34;;;17.24;53.23
80749;BME280;70145;53.746;9.970;2023-07-20T12:26:25;101030.34;;;17.23;52.95
80749;BME280;70145;53.746;9.970;2023-07-20T12:28:51;101041.59;;;17.36;52.75
80749;BME280;70145;53.746;9.970;2023-07-20T12:31:16;101038.53;;;17.47;52.47
80749;BME280;70145;53.746;9.970;2023-07-20T12:33:42;101043.50;;;17.44;51.55
80749;BME280;70145;53.746;9.970;2023-07-20T12:36:08;101041.09;;;17.49;51.32
80749;BME280;70145;53.746;9.970;2023-07-20T12:38:34;101043.66;;;17.50;49.57
80749;BME280;70145;53.746;9.970;2023-07-20T12:41:00;101037.75;;;17.63;50.40
80749;BME280;70145;53.746;9.970;2023-07-20T12:43:26;101037.75;;;17.71;50.16
80749;BME280;70145;53.746;9.970;2023-07-20T12:45:51;101043.19;;;17.71;50.27
80749;BME280;70145;53.746;9.970;2023-07-20T12:48:17;101039.06;;;17.59;48.49
80749;BME280;70145;53.746;9.970;2023-07-20T12:50:42;101032.63;;;17.68;49.14
80749;BME280;70145;53.746;9.970;2023-07-20T12:53:07;101037.22;;;17.83;49.73
80749;BME280;70145;53.746;9.970;2023-07-20T12:55:33;101033.84;;;17.89;49.43
80749;BME280;70145;53.746;9.970;2023-07-20T12:57:58;101034.38;;;18.01;48.94